Time;durP1;ratioP1;P1;durP2;ratioP2;P2;SDS_P1;SDS_P2;PMS_P1;PMS_P2;Temp;Humidity;BMP_temperature;BMP_pressure;BME280_temperature;BME280_humidity;BME280_pressure;Samples;Min_cycle;Max_cycle;Signal;HPM_P1;HPM_P2
2024/01/16 00:02:26;;;;;;;2.97;1.70;;;;;;;1.87;100.00;100882.53;5224115;28;20029;-77
2024/01/16 00:04:58;;;;;;;3.10;1.33;;;;;;;1.91;100.00;100890.03;5227201;28;20047;-77
2024/01/16 00:07:32;;;;;;;4.25;1.50;;;;;;;1.95;100.00;100901.06;5226120;28;20029;-78
2024/01/16 00:10:06;;;;;;;3.40;1.38;;;;;;;1.91;100.00;100895.22;5226881;28;20025;-78
2024/01/16 00:12:40;;;;;;;3.90;1.60;;;;;;;1.97;100.00;100904.44;5227529;28;20075;-78
2024/01/16 00:15:11;;;;;;;;;;;;;;;2.41;100.00;100904.00;5227171;28;20036;-79
2024/01/16 00:17:43;;;;;;;4.15;1.90;;;;;;;2.02;100.00;100904.22;5228113;28;20374;-77
2024/01/16 00:20:15;;;;;;;3.40;1.90;;;;;;;2.00;100.00;100911.19;5227359;28;20034;-77
2024/01/16 00:22:47;;;;;;;5.45;1.70;;;;;;;1.95;100.00;100901.91;5228689;28;20040;-77
2024/01/16 00:25:19;;;;;;;3.75;1.80;;;;;;;2.03;100.00;100909.28;5227054;28;20035;-77
2024/01/16 00:27:51;;;;;;;3.33;2.10;;;;;;;2.06;100.00;100903.16;5227402;28;20048;-77
2024/01/16 00:30:23;;;;;;;5.18;2.40;;;;;;;2.04;100.00;100905.78;5227473;28;20025;-77
2024/01/16 00:32:55;;;;;;;5.72;2.03;;;;;;;2.06;100.00;100903.16;5227654;28;20043;-77
2024/01/16 00:35:27;;;;;;;3.33;1.65;;;;;;;2.07;100.00;100909.97;5226040;28;20037;-78
2024/01/16 00:38:00;;;;;;;5.57;1.58;;;;;;;2.06;100.00;100903.97;5227672;28;20490;-77
2024/01/16 00:40:31;;;;;;;5.90;1.97;;;;;;;2.10;100.00;100909.84;5228689;28;20040;-76
2024/01/16 00:43:03;;;;;;;2.83;1.40;;;;;;;2.09;100.00;100905.59;5243041;28;20479;-78
2024/01/16 00:45:36;;;;;;;4.32;1.60;;;;;;;2.10;100.00;100910.66;5227505;28;20033;-77
2024/01/16 00:48:10;;;;;;;3.45;1.42;;;;;;;2.15;100.00;100913.84;5226603;28;20033;-77
2024/01/16 00:50:42;;;;;;;6.28;1.70;;;;;;;2.15;100.00;100911.28;5227123;28;20021;-79
2024/01/16 00:53:13;;;;;;;4.18;1.55;;;;;;;2.14;100.00;100907.03;5228121;28;20064;-77
2024/01/16 00:55:45;;;;;;;7.18;2.13;;;;;;;2.14;100.00;100901.84;5227679;28;20037;-78
2024/01/16 00:58:17;;;;;;;3.95;1.45;;;;;;;2.14;100.00;100908.78;5226677;28;20052;-77
2024/01/16 01:00:49;;;;;;;6.95;2.08;;;;;;;2.14;100.00;100912.19;5227682;28;20383;-78
2024/01/16 01:03:21;;;;;;;5.28;1.40;;;;;;;2.18;100.00;100902.53;5227699;28;20083;-77
2024/01/16 01:05:53;;;;;;;6.18;1.88;;;;;;;2.14;100.00;100912.19;5226648;28;20033;-77
2024/01/16 01:08:25;;;;;;;4.30;1.70;;;;;;;2.16;100.00;100915.56;5226858;28;20040;-76
2024/01/16 01:10:57;;;;;;;5.40;1.75;;;;;;;2.15;100.00;100916.44;5226491;28;20398;-76
2024/01/16 01:13:29;;;;;;;4.20;1.58;;;;;;;2.16;100.00;100919.88;5228405;28;20034;-76
2024/01/16 01:16:01;;;;;;;7.38;2.15;;;;;;;2.14;100.00;100914.78;5227052;28;20037;-76
2024/01/16 01:18:32;;;;;;;5.82;2.10;;;;;;;2.13;100.00;100915.69;5227635;28;20048;-76
2024/01/16 01:21:04;;;;;;;7.30;1.85;;;;;;;2.12;100.00;100906.28;5227497;28;20490;-76
2024/01/16 01:23:36;;;;;;;4.55;1.40;;;;;;;2.12;100.00;100916.63;5227118;28;20136;-76
2024/01/16 01:26:08;;;;;;;4.45;1.60;;;;;;;2.15;100.00;100916.44;5228243;28;20103;-76
2024/01/16 01:28:41;;;;;;;6.07;1.55;;;;;;;2.14;100.00;100913.94;5226900;28;20057;-76
2024/01/16 01:31:13;;;;;;;4.70;1.58;;;;;;;2.17;100.00;100906.03;5226858;28;20018;-76
2024/01/16 01:33:45;;;;;;;4.80;1.45;;;;;;;2.15;100.00;100908.69;5228005;28;20025;-76
2024/01/16 01:36:17;;;;;;;6.43;1.45;;;;;;;2.15;100.00;100898.34;5228406;28;20044;-76
2024/01/16 01:38:49;;;;;;;5.45;2.53;;;;;;;2.12;100.00;100898.53;5220945;28;20046;-76
2024/01/16 01:41:20;;;;;;;4.35;1.70;;;;;;;2.17;100.00;100909.47;5225110;28;20032;-76
2024/01/16 01:43:52;;;;;;;4.07;1.60;;;;;;;2.19;100.00;100909.38;5231351;28;20394;-76
2024/01/16 01:46:25;;;;;;;3.88;1.70;;;;;;;2.24;100.00;100909.19;5226334;28;20022;-76
2024/01/16 01:48:57;;;;;;;6.05;1.48;;;;;;;2.25;100.00;100911.66;5227008;28;20034;-76
2024/01/16 01:51:29;;;;;;;6.15;1.80;;;;;;;2.26;100.00;100915.09;5229388;28;20041;-76
2024/01/16 01:54:01;;;;;;;3.95;1.63;;;;;;;2.23;100.00;100913.47;5230233;28;20511;-76
2024/01/16 01:56:33;;;;;;;3.50;1.17;;;;;;;2.17;100.00;100917.22;5231789;28;20033;-76
2024/01/16 01:59:06;;;;;;;4.30;1.55;;;;;;;2.18;100.00;100918.06;5229562;28;20037;-76
2024/01/16 02:01:39;;;;;;;2.50;1.27;;;;;;;2.26;100.00;100930.59;5231473;28;20040;-76
2024/01/16 02:04:15;;;;;;;3.28;1.63;;;;;;;2.30;100.00;100929.53;5230265;28;20037;-76
2024/01/16 02:06:48;;;;;;;3.92;1.20;;;;;;;2.16;100.00;100931.06;5230709;28;20475;-76
2024/01/16 02:09:20;;;;;;;3.40;1.30;;;;;;;2.23;100.00;100935.91;5229210;28;20033;-76
2024/01/16 02:11:51;;;;;;;4.47;1.63;;;;;;;2.21;100.00;100932.59;5230477;28;20060;-76
2024/01/16 02:14:23;;;;;;;5.07;1.67;;;;;;;2.21;100.00;100932.59;5230149;28;20033;-76
2024/01/16 02:16:55;;;;;;;3.40;1.50;;;;;;;2.21;100.00;100935.16;5231205;28;20037;-76
2024/01/16 02:19:27;;;;;;;4.03;1.42;;;;;;;2.13;100.00;100928.63;5229418;28;20395;-76
2024/01/16 02:22:01;;;;;;;3.92;1.65;;;;;;;2.21;100.00;100930.00;5231483;28;20040;-76
2024/01/16 02:24:33;;;;;;;6.60;1.70;;;;;;;2.21;100.00;100925.66;5230170;28;20037;-76
2024/01/16 02:27:05;;;;;;;6.60;2.28;;;;;;;2.16;100.00;100928.47;5234013;28;20064;-76
2024/01/16 02:29:43;;;;;;;3.65;1.52;;;;;;;2.26;100.00;100935.78;5230829;28;20521;-76
2024/01/16 02:32:16;;;;;;;2.25;1.17;;;;;;;2.18;100.00;100936.16;5228134;28;20049;-76
2024/01/16 02:34:48;;;;;;;2.90;1.50;;;;;;;2.17;100.00;100932.72;5230822;28;20995;-76
2024/01/16 02:37:20;;;;;;;2.42;1.60;;;;;;;2.17;100.00;100935.31;5230640;28;20037;-76
2024/01/16 02:39:52;;;;;;;2.20;1.60;;;;;;;2.13;100.00;100933.78;5229640;28;20053;-76
2024/01/16 02:42:24;;;;;;;2.95;1.63;;;;;;;2.12;100.00;100934.69;5230462;28;20029;-76
2024/01/16 02:44:56;;;;;;;2.88;1.67;;;;;;;2.12;100.00;100934.69;5229755;28;20048;-75
2024/01/16 02:47:28;;;;;;;3.28;1.30;;;;;;;2.14;100.00;100927.69;5229713;28;20029;-76
2024/01/16 02:50:00;;;;;;;5.35;1.50;;;;;;;2.11;100.00;100933.00;5228665;28;20047;-76
2024/01/16 02:52:32;;;;;;;4.05;1.38;;;;;;;2.13;100.00;100923.44;5226987;28;20068;-76
2024/01/16 02:55:04;;;;;;;4.38;1.40;;;;;;;2.18;100.00;100920.63;5224472;28;20049;-76
2024/01/16 02:57:36;;;;;;;5.30;1.30;;;;;;;2.22;100.00;100924.75;5229821;28;20045;-76
2024/01/16 03:00:08;;;;;;;5.95;1.50;;;;;;;2.16;100.00;100923.31;5225405;28;20040;-76
2024/01/16 03:02:40;;;;;;;5.10;1.50;;;;;;;2.21;100.00;100930.00;5228339;28;20038;-76
2024/01/16 03:05:12;;;;;;;3.65;1.63;;;;;;;2.23;100.00;100935.91;5229523;28;20040;-76
2024/01/16 03:07:44;;;;;;;5.65;1.35;;;;;;;2.29;100.00;100935.63;5228895;28;20033;-76
2024/01/16 03:10:16;;;;;;;7.75;1.80;;;;;;;2.31;100.00;100941.53;5227592;28;20511;-76
2024/01/16 03:12:48;;;;;;;4.82;1.20;;;;;;;2.33;100.00;100937.97;5229272;28;20035;-76
2024/01/16 03:15:20;;;;;;;7.20;2.47;;;;;;;2.34;100.00;100931.06;5229888;28;20044;-76
2024/01/16 03:17:52;;;;;;;4.47;1.30;;;;;;;2.34;100.00;100936.22;5228747;28;20041;-76
2024/01/16 03:20:25;;;;;;;5.95;1.45;;;;;;;2.33;100.00;100932.81;5228682;28;20160;-76
2024/01/16 03:22:57;;;;;;;5.28;1.42;;;;;;;2.29;100.00;100939.03;5230189;28;20029;-76
2024/01/16 03:25:29;;;;;;;5.68;1.80;;;;;;;2.25;100.00;100940.09;5229418;28;20764;-76
2024/01/16 03:28:01;;;;;;;7.18;1.30;;;;;;;2.16;100.00;100925.06;5227446;28;20021;-76
2024/01/16 03:30:33;;;;;;;4.20;1.42;;;;;;;2.18;100.00;100929.22;5228404;28;20546;-76
2024/01/16 03:33:05;;;;;;;3.78;1.30;;;;;;;2.12;100.00;100924.38;5229349;28;20032;-76
2024/01/16 03:35:37;;;;;;;4.88;1.55;;;;;;;2.13;100.00;100925.19;5244700;28;20045;-76
2024/01/16 03:38:09;;;;;;;4.65;1.50;;;;;;;2.14;100.00;100922.53;5227946;28;20781;-77
2024/01/16 03:40:41;;;;;;;4.78;2.13;;;;;;;2.14;100.00;100926.88;5227637;28;20037;-76
2024/01/16 03:43:13;;;;;;;5.03;1.55;;;;;;;2.11;100.00;100916.66;5227721;28;20044;-76
2024/01/16 03:45:45;;;;;;;4.03;2.30;;;;;;;2.15;100.00;100921.59;5229182;28;20045;-76
2024/01/16 03:48:17;;;;;;;5.75;2.92;;;;;;;2.15;100.00;100913.03;5229350;28;20033;-76
2024/01/16 03:50:49;;;;;;;6.95;3.50;;;;;;;2.13;100.00;100912.28;5226934;28;20031;-76
2024/01/16 03:53:22;;;;;;;7.13;3.60;;;;;;;2.10;100.00;100908.09;5229040;28;20474;-76
2024/01/16 03:55:54;;;;;;;9.10;4.13;;;;;;;2.06;100.00;100916.06;5229025;28;20063;-76
2024/01/16 03:58:26;;;;;;;7.00;4.90;;;;;;;2.02;100.00;100910.22;5227409;28;20124;-76
2024/01/16 04:00:58;;;;;;;8.15;4.45;;;;;;;1.98;100.00;100898.34;5243476;28;20056;-76
2024/01/16 04:03:30;;;;;;;7.20;4.90;;;;;;;1.89;100.00;100902.19;5229300;28;20037;-76
2024/01/16 04:06:02;;;;;;;8.80;4.63;;;;;;;1.84;100.00;100898.16;5228756;28;20070;-77
2024/01/16 04:08:34;;;;;;;9.30;4.57;;;;;;;1.88;100.00;100910.03;5226456;28;20467;-76
2024/01/16 04:11:12;;;;;;;9.20;5.28;;;;;;;2.00;100.00;100899.09;5227476;28;20032;-76
2024/01/16 04:13:45;;;;;;;9.82;5.65;;;;;;;1.86;100.00;100896.34;5228580;28;20514;-76
2024/01/16 04:16:17;;;;;;;9.05;5.35;;;;;;;1.86;100.00;100901.53;5227349;28;20386;-76
2024/01/16 04:18:48;;;;;;;10.50;5.53;;;;;;;1.80;100.00;100887.13;5227855;28;20045;-76
2024/01/16 04:21:20;;;;;;;8.30;5.53;;;;;;;1.75;100.00;100883.13;5229019;28;20040;-76
2024/01/16 04:23:52;;;;;;;9.02;5.40;;;;;;;1.67;100.00;100873.97;5227543;28;20025;-76
2024/01/16 04:26:24;;;;;;;9.38;5.70;;;;;;;1.65;100.00;100870.63;5227544;28;20036;-76
2024/01/16 04:28:56;;;;;;;11.43;5.47;;;;;;;1.67;100.00;100870.56;5227708;28;20041;-76
2024/01/16 04:31:28;;;;;;;11.75;5.53;;;;;;;1.66;100.00;100874.88;5227244;28;20459;-77
2024/01/16 04:34:00;;;;;;;10.07;6.05;;;;;;;1.64;100.00;100874.13;5228503;28;20068;-76
2024/01/16 04:36:32;;;;;;;10.57;5.43;;;;;;;1.62;100.00;100873.34;5219249;28;20052;-76
2024/01/16 04:39:04;;;;;;;9.50;5.75;;;;;;;1.62;100.00;100873.34;5227695;28;20060;-76
2024/01/16 04:41:36;;;;;;;9.02;5.57;;;;;;;1.62;100.00;100872.50;5227436;28;20553;-76
2024/01/16 04:44:08;;;;;;;11.18;6.13;;;;;;;1.60;100.00;100870.00;5228753;28;20033;-76
2024/01/16 04:46:40;;;;;;;10.02;5.25;;;;;;;1.63;100.00;100869.88;5228066;28;20043;-76
2024/01/16 04:49:12;;;;;;;12.02;5.63;;;;;;;1.59;100.00;100873.50;5227571;28;20029;-76
2024/01/16 04:51:43;;;;;;;9.13;4.50;;;;;;;1.62;100.00;100881.09;5228953;28;20471;-76
2024/01/16 04:54:15;;;;;;;9.95;5.00;;;;;;;1.52;100.00;100872.13;5228636;28;20033;-76
2024/01/16 04:56:47;;;;;;;11.30;4.97;;;;;;;1.58;100.00;100879.56;5232644;28;20068;-76
2024/01/16 04:59:20;;;;;;;9.27;4.95;;;;;;;1.59;100.00;100877.81;5228700;28;20029;-76
2024/01/16 05:01:51;;;;;;;8.93;4.53;;;;;;;1.57;100.00;100880.47;5223364;28;20038;-77
2024/01/16 05:04:23;;;;;;;9.45;4.75;;;;;;;1.56;100.00;100877.97;5228919;28;20037;-76
2024/01/16 05:06:55;;;;;;;9.45;4.60;;;;;;;1.53;100.00;100878.13;5228488;28;20939;-76
2024/01/16 05:09:27;;;;;;;11.63;4.97;;;;;;;1.51;100.00;100877.34;5227515;28;20025;-76
2024/01/16 05:12:00;;;;;;;10.63;4.82;;;;;;;1.52;100.00;100872.13;5225520;28;20029;-76
2024/01/16 05:14:32;;;;;;;7.88;4.22;;;;;;;1.53;100.00;100873.78;5227837;28;20501;-76
2024/01/16 05:17:04;;;;;;;6.97;4.20;;;;;;;1.54;100.00;100869.47;5229826;28;20044;-76
2024/01/16 05:19:36;;;;;;;12.95;5.00;;;;;;;1.54;100.00;100859.97;5230369;28;20495;-76
2024/01/16 05:22:10;;;;;;;10.90;4.70;;;;;;;1.57;100.00;100861.56;5231996;28;20037;-76
2024/01/16 05:24:42;;;;;;;9.75;4.78;;;;;;;1.53;100.00;100854.88;5231259;28;20053;-77
2024/01/16 05:27:14;;;;;;;9.68;4.22;;;;;;;1.51;100.00;100849.78;5231058;28;20043;-76
2024/01/16 05:29:46;;;;;;;9.48;4.22;;;;;;;1.48;100.00;100855.09;5231114;28;20415;-76
2024/01/16 05:32:18;;;;;;;9.75;5.35;;;;;;;1.45;100.00;100863.00;5226934;28;20033;-76
2024/01/16 05:34:49;;;;;;;10.27;4.18;;;;;;;1.42;100.00;100852.78;5230168;28;20033;-77
2024/01/16 05:37:21;;;;;;;12.10;4.63;;;;;;;1.41;100.00;100853.72;5231516;28;20059;-77
2024/01/16 05:39:53;;;;;;;10.13;4.28;;;;;;;1.35;100.00;100854.81;5229808;28;20423;-76
2024/01/16 05:42:25;;;;;;;10.95;4.10;;;;;;;1.40;100.00;100857.19;5232722;28;20032;-76
2024/01/16 05:44:57;;;;;;;7.72;3.75;;;;;;;1.43;100.00;100851.88;5231847;28;20048;-77
2024/01/16 05:47:30;;;;;;;9.10;4.00;;;;;;;1.36;100.00;100855.66;5230698;28;20030;-77
2024/01/16 05:50:02;;;;;;;9.57;3.88;;;;;;;1.32;100.00;100849.78;5230871;28;20033;-77
2024/01/16 05:52:35;;;;;;;7.25;3.90;;;;;;;1.32;100.00;100843.78;5231954;28;20026;-77
2024/01/16 05:55:07;;;;;;;7.35;3.65;;;;;;;1.27;100.00;100850.94;5229554;28;20033;-76
2024/01/16 05:57:39;;;;;;;11.13;4.72;;;;;;;1.24;100.00;100841.56;5229946;28;20060;-77
2024/01/16 06:00:12;;;;;;;7.95;3.58;;;;;;;1.19;100.00;100840.94;5231146;28;20116;-77
2024/01/16 06:02:44;;;;;;;9.47;3.70;;;;;;;1.13;100.00;100836.06;5225089;28;20824;-77
2024/01/16 06:05:16;;;;;;;8.35;3.78;;;;;;;1.08;100.00;100833.69;5227249;28;20048;-77
2024/01/16 06:07:48;;;;;;;9.85;4.35;;;;;;;1.09;100.00;100837.13;5231097;28;20303;-78
2024/01/16 06:10:20;;;;;;;8.88;4.15;;;;;;;1.10;100.00;100842.22;5233670;28;20045;-77
2024/01/16 06:12:52;;;;;;;8.25;4.00;;;;;;;1.07;100.00;100842.34;5231031;28;20494;-77
2024/01/16 06:15:24;;;;;;;8.65;3.95;;;;;;;1.04;100.00;100831.34;5231466;28;20048;-77
2024/01/16 06:17:56;;;;;;;8.88;3.95;;;;;;;1.00;100.00;100824.66;5228198;28;20033;-77
2024/01/16 06:20:29;;;;;;;7.60;3.67;;;;;;;0.99;100.00;100833.28;5231193;28;20707;-77
2024/01/16 06:23:01;;;;;;;12.02;4.00;;;;;;;0.95;100.00;100828.28;5231765;28;20037;-77
2024/01/16 06:25:33;;;;;;;7.63;3.22;;;;;;;0.94;100.00;100829.16;5232145;28;20030;-77
2024/01/16 06:28:05;;;;;;;6.20;3.58;;;;;;;0.96;100.00;100836.84;5232673;28;20037;-77
2024/01/16 06:30:37;;;;;;;7.35;3.53;;;;;;;0.88;100.00;100833.78;5225872;28;20037;-77
2024/01/16 06:33:09;;;;;;;9.65;3.30;;;;;;;0.79;100.00;100824.69;5233414;28;20036;-77
2024/01/16 06:35:40;;;;;;;10.98;3.25;;;;;;;0.83;100.00;100825.38;5230364;28;20898;-77
2024/01/16 06:38:12;;;;;;;7.78;3.50;;;;;;;0.83;100.00;100840.84;5229074;28;20042;-77
2024/01/16 06:40:44;;;;;;;9.20;3.63;;;;;;;0.80;100.00;100838.44;5227490;28;20103;-78
2024/01/16 06:43:16;;;;;;;6.35;3.38;;;;;;;0.77;100.00;100836.81;5232824;28;20387;-77
2024/01/16 06:45:48;;;;;;;7.85;3.63;;;;;;;0.71;100.00;100843.06;5232901;28;20060;-78
2024/01/16 06:48:20;;;;;;;7.15;3.28;;;;;;;0.69;100.00;100839.75;5231937;28;20029;-78
2024/01/16 06:50:52;;;;;;;10.48;3.50;;;;;;;0.62;100.00;100829.75;5230516;28;20041;-77
2024/01/16 06:53:24;;;;;;;8.63;2.97;;;;;;;0.76;100.00;100842.03;5232894;28;20468;-77
2024/01/16 06:55:56;;;;;;;9.38;4.45;;;;;;;0.69;100.00;100850.06;5232575;28;20043;-77
2024/01/16 06:58:28;;;;;;;10.45;4.32;;;;;;;0.68;100.00;100852.69;5229777;28;20029;-76
2024/01/16 07:01:00;;;;;;;7.72;3.40;;;;;;;0.60;100.00;100852.19;5230985;28;20037;-78
2024/01/16 07:03:32;;;;;;;9.80;3.67;;;;;;;0.64;100.00;100853.72;5233047;28;20064;-77
2024/01/16 07:06:04;;;;;;;7.28;3.20;;;;;;;0.59;100.00;100855.66;5231678;28;20574;-77
2024/01/16 07:08:36;;;;;;;8.48;3.10;;;;;;;0.56;100.00;100850.63;5245470;28;20056;-77
2024/01/16 07:11:12;;;;;;;12.43;3.55;;;;;;;0.53;100.00;100853.34;5226175;28;20022;-77
2024/01/16 07:13:44;;;;;;;6.57;3.17;;;;;;;0.58;100.00;100857.41;5232615;28;20036;-78
2024/01/16 07:16:16;;;;;;;6.70;3.35;;;;;;;0.51;100.00;100861.16;5228828;28;20401;-78
2024/01/16 07:18:48;;;;;;;7.18;3.28;;;;;;;0.54;100.00;100866.19;5229480;28;20033;-78
2024/01/16 07:21:20;;;;;;;10.77;3.13;;;;;;;0.51;100.00;100866.31;5231670;28;20037;-78
2024/01/16 07:23:52;;;;;;;6.40;2.95;;;;;;;0.52;100.00;100862.00;5230699;28;20200;-78
2024/01/16 07:26:24;;;;;;;7.72;3.25;;;;;;;0.62;100.00;100863.28;5231913;28;20028;-78
2024/01/16 07:28:56;;;;;;;13.40;4.38;;;;;;;0.60;100.00;100859.91;5235250;28;20095;-78
2024/01/16 07:31:28;;;;;;;9.82;3.10;;;;;;;0.63;100.00;100863.19;5230190;28;20021;-78
2024/01/16 07:34:00;;;;;;;6.32;3.13;;;;;;;0.61;100.00;100862.44;5231693;28;20033;-78
2024/01/16 07:36:32;;;;;;;8.50;3.10;;;;;;;0.61;100.00;100866.78;5231115;28;20025;-78
2024/01/16 07:39:04;;;;;;;9.82;4.22;;;;;;;0.58;100.00;100870.31;5229552;28;20043;-78
2024/01/16 07:41:36;;;;;;;6.38;2.80;;;;;;;0.61;100.00;100871.94;5229650;28;20037;-78
2024/01/16 07:44:08;;;;;;;7.72;3.50;;;;;;;0.57;100.00;100858.31;5230127;28;20486;-77
2024/01/16 07:46:40;;;;;;;7.93;3.10;;;;;;;0.55;100.00;100859.28;5231162;28;20037;-78
2024/01/16 07:49:12;;;;;;;8.75;4.00;;;;;;;0.55;100.00;100865.28;5222856;28;20033;-78
2024/01/16 07:51:44;;;;;;;8.40;3.42;;;;;;;0.58;100.00;100872.88;5228514;28;20508;-78
2024/01/16 07:54:16;;;;;;;8.40;3.70;;;;;;;0.59;100.00;100879.72;5226980;28;20035;-78
2024/01/16 07:56:47;;;;;;;7.78;3.40;;;;;;;0.57;100.00;100881.53;5228244;28;20029;-78
2024/01/16 07:59:19;;;;;;;9.82;3.72;;;;;;;0.58;100.00;100890.09;5228220;28;20043;-78
2024/01/16 08:01:51;;;;;;;9.13;3.85;;;;;;;0.59;100.00;100884.88;5226674;28;20406;-78
2024/01/16 08:04:23;;;;;;;7.05;3.47;;;;;;;0.58;100.00;100893.50;5227190;28;20033;-78
2024/01/16 08:06:55;;;;;;;11.15;4.20;;;;;;;0.56;100.00;100891.88;5227895;28;20740;-78
2024/01/16 08:09:27;;;;;;;9.95;3.33;;;;;;;0.59;100.00;100884.03;5227986;28;20037;-78
2024/01/16 08:12:01;;;;;;;8.30;3.28;;;;;;;0.63;100.00;100886.41;5226445;28;20124;-78
2024/01/16 08:14:33;;;;;;;5.97;3.42;;;;;;;0.62;100.00;100879.59;5226788;28;20037;-78
2024/01/16 08:17:05;;;;;;;8.95;4.15;;;;;;;0.62;100.00;100887.31;5227611;28;20517;-78
2024/01/16 08:19:37;;;;;;;9.43;3.97;;;;;;;0.64;100.00;100882.91;5226325;28;20498;-78
2024/01/16 08:22:08;;;;;;;4.88;3.40;;;;;;;0.66;100.00;100890.59;5226975;28;20056;-78
2024/01/16 08:24:40;;;;;;;8.60;3.20;;;;;;;0.65;100.00;100887.19;5227697;28;20043;-78
2024/01/16 08:27:12;;;;;;;8.50;3.40;;;;;;;0.70;100.00;100898.13;5227228;28;20502;-78
2024/01/16 08:29:44;;;;;;;8.10;3.85;;;;;;;0.72;100.00;100898.91;5225283;28;20086;-78
2024/01/16 08:32:17;;;;;;;6.57;3.15;;;;;;;0.72;100.00;100893.75;5227851;28;20049;-78
2024/01/16 08:34:48;;;;;;;8.00;3.57;;;;;;;0.78;100.00;100900.38;5227064;28;20044;-78
2024/01/16 08:37:20;;;;;;;9.43;3.42;;;;;;;0.81;100.00;100907.16;5226166;28;20042;-78
2024/01/16 08:39:52;;;;;;;10.20;3.58;;;;;;;0.73;100.00;100897.19;5224568;28;20615;-78
2024/01/16 08:42:24;;;;;;;7.50;3.00;;;;;;;0.80;100.00;100914.06;5225032;28;20030;-78
2024/01/16 08:44:56;;;;;;;5.63;3.35;;;;;;;0.81;100.00;100909.72;5226212;28;20584;-78
2024/01/16 08:47:28;;;;;;;8.93;3.47;;;;;;;0.82;100.00;100895.94;5227043;28;20505;-78
2024/01/16 08:50:00;;;;;;;7.97;3.80;;;;;;;0.84;100.00;100900.13;5226166;28;20505;-78
2024/01/16 08:52:32;;;;;;;6.80;3.33;;;;;;;0.84;100.00;100897.56;5225391;28;20036;-78
2024/01/16 08:55:05;;;;;;;7.55;4.88;;;;;;;0.84;100.00;100900.13;5226203;28;20304;-78
2024/01/16 08:57:37;;;;;;;7.82;3.10;;;;;;;0.85;100.00;100903.53;5227868;28;20037;-78
2024/01/16 09:00:09;;;;;;;8.52;3.28;;;;;;;0.85;100.00;100904.38;5224770;28;20029;-78
2024/01/16 09:02:41;;;;;;;7.72;3.60;;;;;;;0.88;100.00;100895.69;5227376;28;20044;-78
2024/01/16 09:05:14;;;;;;;6.57;3.30;;;;;;;0.88;100.00;100891.34;5225444;28;20041;-78
2024/01/16 09:07:46;;;;;;;8.85;3.40;;;;;;;0.92;100.00;100894.63;5225073;28;20033;-78
2024/01/16 09:10:18;;;;;;;7.53;3.90;;;;;;;0.92;100.00;100899.78;5227047;28;20037;-78
2024/01/16 09:12:50;;;;;;;9.52;3.40;;;;;;;0.86;100.00;100898.31;5227736;28;20044;-78
2024/01/16 09:15:22;;;;;;;8.68;3.65;;;;;;;0.94;100.00;100903.13;5226527;28;20394;-78
2024/01/16 09:17:54;;;;;;;6.28;3.35;;;;;;;0.96;100.00;100897.00;5227032;28;20038;-78
2024/01/16 09:20:26;;;;;;;6.65;3.20;;;;;;;0.97;100.00;100895.25;5242970;28;20048;-78
2024/01/16 09:22:58;;;;;;;6.50;3.55;;;;;;;0.95;100.00;100885.03;5227273;28;20033;-79
2024/01/16 09:25:30;;;;;;;7.63;3.75;;;;;;;1.07;100.00;100888.78;5226914;28;20043;-79
2024/01/16 09:28:02;;;;;;;7.53;4.00;;;;;;;1.05;100.00;100888.00;5225107;28;20112;-79
2024/01/16 09:30:34;;;;;;;7.10;3.60;;;;;;;1.02;100.00;100893.31;5228234;28;20510;-79
2024/01/16 09:33:06;;;;;;;7.55;3.45;;;;;;;1.09;100.00;100892.13;5227365;28;20029;-79
2024/01/16 09:35:38;;;;;;;8.75;3.45;;;;;;;1.12;100.00;100881.66;5226176;28;20029;-79
2024/01/16 09:38:10;;;;;;;7.07;3.58;;;;;;;1.16;100.00;100877.22;5226210;28;20041;-79
2024/01/16 09:40:42;;;;;;;7.05;3.28;;;;;;;1.23;100.00;100875.19;5226345;28;20045;-79
2024/01/16 09:43:14;;;;;;;7.68;3.53;;;;;;;1.25;100.00;100874.22;5227205;28;20060;-79
2024/01/16 09:45:48;;;;;;;6.57;3.20;;;;;;;1.29;100.00;100883.50;5226251;28;20031;-79
2024/01/16 09:48:20;;;;;;;7.07;3.30;;;;;;;1.34;100.00;100885.88;5226873;28;20029;-79
2024/01/16 09:50:52;;;;;;;9.00;3.85;;;;;;;1.35;100.00;100875.47;5227153;28;20412;-79
2024/01/16 09:53:24;;;;;;;8.23;3.35;;;;;;;1.33;100.00;100887.63;5226765;28;20025;-79
2024/01/16 09:56:01;;;;;;;7.18;3.80;;;;;;;1.41;100.00;100884.69;5227050;28;20037;-78
2024/01/16 09:58:36;;;;;;;7.65;3.17;;;;;;;1.33;100.00;100882.47;5227477;28;20387;-79
2024/01/16 10:01:08;;;;;;;8.20;3.55;;;;;;;1.22;100.00;100869.22;5227044;28;20033;-78
2024/01/16 10:03:43;;;;;;;8.07;3.97;;;;;;;1.33;100.00;100871.31;5229708;28;20033;-79
2024/01/16 10:06:17;;;;;;;9.13;3.60;;;;;;;1.30;100.00;100872.28;5230257;28;20045;-79
2024/01/16 10:08:49;;;;;;;8.38;4.35;;;;;;;1.29;100.00;100878.34;5230174;28;20485;-79
2024/01/16 10:11:21;;;;;;;8.82;4.15;;;;;;;1.27;100.00;100866.41;5231681;28;20045;-78
2024/01/16 10:13:53;;;;;;;8.10;3.80;;;;;;;1.29;100.00;100869.75;5231518;28;20021;-79
2024/01/16 10:17:05;;;;;;;5.47;3.10;;;;;;;1.51;100.00;100869.59;5232238;28;20036;-78
2024/01/16 10:19:50;;;;;;;7.88;3.78;;;;;;;1.43;100.00;100860.44;5231453;28;20033;-79
2024/01/16 10:22:27;;;;;;;7.30;3.80;;;;;;;1.40;100.00;100867.50;5230511;28;20235;-79
2024/01/16 10:25:07;;;;;;;10.25;4.43;;;;;;;1.56;100.00;100863.31;5232202;28;20779;-78
2024/01/16 10:27:40;;;;;;;9.02;4.00;;;;;;;1.45;100.00;100853.50;5227706;28;20049;-79
2024/01/16 10:30:12;;;;;;;9.02;4.18;;;;;;;1.51;100.00;100849.78;5229296;28;20521;-79
2024/01/16 10:32:44;;;;;;;8.63;3.88;;;;;;;1.52;100.00;100846.31;5230717;28;20025;-79
2024/01/16 10:35:16;;;;;;;11.57;3.88;;;;;;;1.55;100.00;100840.13;5230509;28;20522;-78
2024/01/16 10:37:52;;;;;;;7.05;3.55;;;;;;;1.70;100.00;100834.25;5229077;28;20057;-78
2024/01/16 10:40:29;;;;;;;7.78;4.00;;;;;;;1.70;100.00;100827.34;5231372;28;20033;-79
2024/01/16 10:43:03;;;;;;;6.75;3.22;;;;;;;1.70;100.00;100829.94;5231894;28;20041;-79
2024/01/16 10:45:35;;;;;;;7.13;3.47;;;;;;;1.63;100.00;100825.97;5232860;28;20044;-79
2024/01/16 10:48:08;;;;;;;7.13;2.88;;;;;;;1.76;100.00;100838.28;5232837;28;20029;-79
2024/01/16 10:50:40;;;;;;;7.18;3.15;;;;;;;1.75;100.00;100836.63;5231854;28;20038;-79
2024/01/16 10:53:16;;;;;;;8.00;3.58;;;;;;;1.87;100.00;100841.19;5232909;28;20037;-79
2024/01/16 10:55:53;;;;;;;7.43;3.58;;;;;;;1.93;100.00;100834.00;5230352;28;20045;-79
2024/01/16 10:58:30;;;;;;;6.07;3.25;;;;;;;1.86;100.00;100839.53;5230707;28;20052;-79
2024/01/16 11:01:05;;;;;;;5.43;3.25;;;;;;;1.87;100.00;100830.84;5231434;28;20041;-79
2024/01/16 11:03:50;;;;;;;5.20;3.25;;;;;;;2.07;100.00;100814.38;5232699;28;20048;-79
2024/01/16 11:06:23;;;;;;;6.65;3.20;;;;;;;1.99;100.00;100819.09;5232980;28;20068;-79
2024/01/16 11:08:56;;;;;;;7.30;3.20;;;;;;;2.05;100.00;100811.88;5233688;28;20029;-79
2024/01/16 11:11:28;;;;;;;7.00;3.40;;;;;;;2.06;100.00;100823.03;5232516;28;20045;-79
2024/01/16 11:14:03;;;;;;;6.32;3.25;;;;;;;2.18;100.00;100819.84;5233108;28;20036;-79
2024/01/16 11:16:35;;;;;;;7.35;3.30;;;;;;;2.15;100.00;100815.66;5233671;28;20033;-79
2024/01/16 11:19:09;;;;;;;9.45;3.83;;;;;;;2.23;100.00;100814.44;5231197;28;20635;-79
2024/01/16 11:21:41;;;;;;;;;;;;;;;2.67;100.00;100812.97;5233687;28;20040;-79
2024/01/16 11:24:13;;;;;;;8.07;3.30;;;;;;;2.32;100.00;100813.97;5233812;28;19917;-79
2024/01/16 11:26:45;;;;;;;7.97;3.63;;;;;;;2.35;100.00;100806.91;5233781;28;20048;-79
2024/01/16 11:29:26;;;;;;;10.02;3.38;;;;;;;2.49;100.00;100816.53;5232007;28;20033;-79
2024/01/16 11:32:00;;;;;;;7.22;3.47;;;;;;;2.37;100.00;100811.97;5233482;28;20041;-79
2024/01/16 11:34:41;;;;;;;5.70;3.15;;;;;;;2.56;100.00;100817.88;5231924;28;20048;-79
2024/01/16 11:37:27;;;;;;;7.47;3.38;;;;;;;2.61;100.00;100813.31;5232698;28;20060;-79
2024/01/16 11:40:24;;;;;;;7.25;3.42;;;;;;;2.70;100.00;100818.91;5229801;28;20107;-79
2024/01/16 11:42:56;;;;;;;5.95;3.40;;;;;;;2.56;100.00;100820.47;5232003;28;20033;-79
2024/01/16 11:45:28;;;;;;;7.90;3.38;;;;;;;2.60;100.00;100811.63;5231818;28;20037;-79
2024/01/16 11:48:12;;;;;;;8.43;3.67;;;;;;;2.77;100.00;100812.50;5230907;28;20071;-79
2024/01/16 11:50:45;;;;;;;5.35;3.25;;;;;;;2.62;100.00;100808.97;5229830;28;20037;-79